Parson, Canada
Current Conditions -  °F | °C
As of 8:13 AM on Monday 22 Dec 2014 (Local Time) from CYGE Reporting Station
Haze Haze  
Wind Chill: 30°   Ceiling: 300
Heat Index: 30°   Visibility: 4mi
Dew Point: 30°   Wind: 0mph
Humidity: 100%   Direction: NA
Pressure: 29.96"   Gusts: NA
Location:  51.1°N, 116.7°W
Report Text: CYGE 221513Z 00000KT 4SM BR BKN003 OVC015 M01/M01 A2996 RMK FG2ST3ST3 VIS E 2 SLP179
Loading
Personal Weather Stations






























Interactive Weather Map New forecast layout! Learn more

10-Day Weather Forecast

Advertisements
Track Severe Weather on mobile